createdAt,value
2023-02-15T00:00:19.137Z,102386.31
2023-02-15T00:02:47.235Z,102383.78
2023-02-15T00:05:17.123Z,102384.59
2023-02-15T00:07:45.224Z,102381.78
2023-02-15T00:10:13.380Z,102380.53
2023-02-15T00:12:41.451Z,102371.38
2023-02-15T00:15:10.312Z,102380.81
2023-02-15T00:17:38.310Z,102376.25
2023-02-15T00:20:08.264Z,102371.13
2023-02-15T00:22:37.670Z,102370.97
2023-02-15T00:25:06.736Z,102372.09
2023-02-15T00:27:35.663Z,102360.31
2023-02-15T00:30:03.841Z,102356.06
2023-02-15T00:32:32.365Z,102358.63
2023-02-15T00:35:00.387Z,102353.91
2023-02-15T00:37:28.431Z,102354.69
2023-02-15T00:39:57.821Z,102354.09
2023-02-15T00:42:26.141Z,102353.44
2023-02-15T00:44:54.169Z,102351.59
2023-02-15T00:47:22.260Z,102347.47
2023-02-15T00:49:50.313Z,102346.19
2023-02-15T00:52:18.367Z,102343.88
2023-02-15T00:54:46.411Z,102343.63
2023-02-15T00:57:15.834Z,102338.81
2023-02-15T00:59:43.869Z,102338.19
2023-02-15T01:02:14.917Z,102339.91
2023-02-15T01:04:43.010Z,102342.50
2023-02-15T01:07:11.093Z,102326.69
2023-02-15T01:09:39.148Z,102329.38
2023-02-15T01:12:07.364Z,102327.63
2023-02-15T01:14:36.792Z,102341.75
2023-02-15T01:17:04.816Z,102329.25
2023-02-15T01:19:32.880Z,102330.13
2023-02-15T01:22:01.516Z,102340.13
2023-02-15T01:24:29.647Z,102336.47
2023-02-15T01:26:57.742Z,102340.19
2023-02-15T01:29:25.800Z,102334.25
2023-02-15T01:31:55.273Z,102336.56
2023-02-15T01:34:23.446Z,102334.06
2023-02-15T01:36:51.512Z,102327.34
2023-02-15T01:39:19.955Z,102331.75
2023-02-15T01:41:47.997Z,102324.22
2023-02-15T01:44:54.900Z,102320.09
2023-02-15T01:47:34.105Z,102319.94
2023-02-15T01:50:12.133Z,102307.03
2023-02-15T01:52:47.780Z,102304.00
2023-02-15T01:55:17.369Z,102310.94
2023-02-15T01:57:48.601Z,102307.16
2023-02-15T02:00:18.506Z,102307.34
2023-02-15T02:02:54.774Z,102297.53
2023-02-15T02:05:23.080Z,102290.38
2023-02-15T02:07:56.805Z,102298.09
2023-02-15T02:10:27.116Z,102294.41
2023-02-15T02:13:00.636Z,102290.53
2023-02-15T02:15:43.965Z,102285.66
2023-02-15T02:18:34.773Z,102281.13
2023-02-15T02:22:06.906Z,102278.88
2023-02-15T02:25:21.039Z,102267.53
2023-02-15T02:27:58.355Z,102274.84
2023-02-15T02:31:10.488Z,102267.28
2023-02-15T02:34:06.323Z,102269.66
2023-02-15T02:36:45.816Z,102279.19
2023-02-15T02:39:32.877Z,102264.38
2023-02-15T02:42:11.633Z,102272.31
2023-02-15T02:44:45.644Z,102265.63
2023-02-15T02:47:21.874Z,102260.19
2023-02-15T02:50:01.096Z,102256.63
2023-02-15T02:52:43.867Z,102256.25
2023-02-15T02:55:19.352Z,102252.69
2023-02-15T02:57:56.329Z,102243.00
2023-02-15T03:00:29.104Z,102241.59
2023-02-15T03:03:05.986Z,102244.50
2023-02-15T03:05:39.666Z,102234.75
2023-02-15T03:08:10.914Z,102234.97
2023-02-15T03:10:42.463Z,102229.59
2023-02-15T03:13:10.916Z,102227.84
2023-02-15T03:16:01.695Z,102231.31
2023-02-15T03:18:38.143Z,102219.06
2023-02-15T03:21:22.818Z,102224.34
2023-02-15T03:24:02.967Z,102219.91
2023-02-15T03:26:34.156Z,102225.31
2023-02-15T03:29:05.833Z,102226.50
2023-02-15T03:31:40.344Z,102217.69
2023-02-15T03:34:13.705Z,102225.34
2023-02-15T03:36:51.851Z,102227.34
2023-02-15T03:39:29.339Z,102215.63
2023-02-15T03:42:06.005Z,102217.41
2023-02-15T03:44:44.552Z,102211.28
2023-02-15T03:47:20.225Z,102207.28
2023-02-15T03:49:56.082Z,102199.63
2023-02-15T03:52:28.267Z,102199.50
2023-02-15T03:54:56.840Z,102201.78
2023-02-15T03:57:46.508Z,102201.78
2023-02-15T04:00:36.431Z,102207.25
2023-02-15T04:03:26.033Z,102212.13
2023-02-15T04:05:54.198Z,102214.75
2023-02-15T04:08:43.991Z,102218.41
2023-02-15T04:11:11.061Z,102215.97
2023-02-15T04:13:39.222Z,102217.91
2023-02-15T04:16:07.869Z,102215.34
2023-02-15T04:18:57.046Z,102205.78
2023-02-15T04:21:44.854Z,102198.22
2023-02-15T04:24:32.950Z,102209.31
2023-02-15T04:27:02.020Z,102197.25
2023-02-15T04:29:37.199Z,102198.91
2023-02-15T04:32:05.594Z,102193.75
2023-02-15T04:34:33.624Z,102196.00
2023-02-15T04:37:01.694Z,102188.94
2023-02-15T04:39:31.080Z,102186.69
2023-02-15T04:41:59.116Z,102189.88
2023-02-15T04:44:27.483Z,102189.75
2023-02-15T04:46:55.749Z,102186.88
2023-02-15T04:49:23.797Z,102185.06
2023-02-15T04:51:56.645Z,102189.41
2023-02-15T04:54:24.853Z,102190.34
2023-02-15T04:56:54.286Z,102179.00
2023-02-15T04:59:22.340Z,102179.47
2023-02-15T05:01:50.575Z,102178.53
2023-02-15T05:04:18.727Z,102185.59
2023-02-15T05:06:46.995Z,102168.44
2023-02-15T05:09:15.856Z,102165.13
2023-02-15T05:11:44.137Z,102162.59
2023-02-15T05:14:13.622Z,102159.16
2023-02-15T05:16:41.917Z,102163.28
2023-02-15T05:19:10.216Z,102161.56
2023-02-15T05:21:38.313Z,102158.13
2023-02-15T05:24:27.409Z,102162.66
2023-02-15T05:27:13.265Z,102161.00
2023-02-15T05:29:45.413Z,102159.97
2023-02-15T05:32:15.863Z,102165.22
2023-02-15T05:34:44.224Z,102166.81
2023-02-15T05:37:12.248Z,102164.78
2023-02-15T05:39:40.287Z,102166.72
2023-02-15T05:42:08.412Z,102163.19
2023-02-15T05:44:36.485Z,102162.53
2023-02-15T05:47:08.030Z,102160.00
2023-02-15T05:49:36.938Z,102159.41
2023-02-15T05:52:05.775Z,102153.41
2023-02-15T05:54:33.924Z,102152.38
2023-02-15T05:57:02.262Z,102150.50
2023-02-15T05:59:30.309Z,102146.88
2023-02-15T06:01:58.365Z,102154.59
2023-02-15T06:04:28.164Z,102160.63
2023-02-15T06:06:56.176Z,102159.75
2023-02-15T06:09:24.200Z,102154.22
2023-02-15T06:11:52.348Z,102154.00
2023-02-15T06:14:20.391Z,102145.03
2023-02-15T06:16:48.495Z,102152.69
2023-02-15T06:19:16.741Z,102149.03
2023-02-15T06:21:47.034Z,102147.25
2023-02-15T06:24:15.574Z,102141.13
2023-02-15T06:26:46.627Z,102138.50
2023-02-15T06:29:14.852Z,102144.75
2023-02-15T06:31:43.102Z,102148.34
2023-02-15T06:34:11.391Z,102145.75
2023-02-15T06:36:39.489Z,102144.00
2023-02-15T06:39:08.876Z,102144.03
2023-02-15T06:41:36.985Z,102144.91
2023-02-15T06:44:05.551Z,102149.31
2023-02-15T06:46:33.636Z,102145.88
2023-02-15T06:49:01.880Z,102133.63
2023-02-15T06:51:29.922Z,102142.38
2023-02-15T06:53:58.010Z,102141.47
2023-02-15T06:56:27.815Z,102144.16
2023-02-15T06:58:56.002Z,102133.72
2023-02-15T07:01:27.067Z,102139.00
2023-02-15T07:03:55.226Z,102141.72
2023-02-15T07:06:23.289Z,102139.09
2023-02-15T07:08:51.480Z,102133.88
2023-02-15T07:11:37.368Z,102138.16
2023-02-15T07:14:06.829Z,102134.63
2023-02-15T07:16:34.850Z,102129.34
2023-02-15T07:19:02.914Z,102128.44
2023-02-15T07:21:31.032Z,102126.59
2023-02-15T07:24:00.026Z,102133.59
2023-02-15T07:26:28.499Z,102132.69
2023-02-15T07:28:57.967Z,102144.03
2023-02-15T07:31:27.356Z,102144.13
2023-02-15T07:33:55.387Z,102144.13
2023-02-15T07:36:23.458Z,102144.78
2023-02-15T07:38:51.475Z,102145.53
2023-02-15T07:41:19.577Z,102143.59
2023-02-15T07:43:47.707Z,102148.72
2023-02-15T07:46:18.805Z,102146.09
2023-02-15T07:48:49.034Z,102147.53
2023-02-15T07:51:17.570Z,102139.44
2023-02-15T07:53:45.697Z,102140.09
2023-02-15T07:56:15.874Z,102144.47
2023-02-15T07:58:53.220Z,102150.34
2023-02-15T08:01:24.766Z,102144.69
2023-02-15T08:03:55.050Z,102140.66
2023-02-15T08:06:25.283Z,102128.78
2023-02-15T08:08:54.007Z,102135.56
2023-02-15T08:11:29.948Z,102139.00
2023-02-15T08:14:01.047Z,102128.63
2023-02-15T08:16:33.769Z,102123.50
2023-02-15T08:19:05.919Z,102121.53
2023-02-15T08:21:36.950Z,102121.47
2023-02-15T08:24:08.134Z,102114.72
2023-02-15T08:26:37.424Z,102105.16
2023-02-15T08:29:07.474Z,102102.13
2023-02-15T08:31:38.339Z,102093.16
2023-02-15T08:34:08.118Z,102097.22
2023-02-15T08:36:36.691Z,102090.81
2023-02-15T08:39:08.293Z,102096.00
2023-02-15T08:41:38.343Z,102086.25
2023-02-15T08:44:08.838Z,102094.03
2023-02-15T08:46:40.071Z,102095.53
2023-02-15T08:49:11.595Z,102092.28
2023-02-15T08:51:40.951Z,102098.53
2023-02-15T08:54:14.015Z,102071.81
2023-02-15T08:56:44.877Z,102070.25
2023-02-15T08:59:18.034Z,102068.75
2023-02-15T09:01:46.793Z,102076.22
2023-02-15T09:04:16.749Z,102076.38
2023-02-15T09:06:48.753Z,102070.19
2023-02-15T09:09:17.831Z,102064.34
2023-02-15T09:11:49.080Z,102073.44
2023-02-15T09:14:21.132Z,102075.53
2023-02-15T09:16:52.521Z,102075.25
2023-02-15T09:19:24.138Z,102070.94
2023-02-15T09:21:52.490Z,102072.38
2023-02-15T09:24:20.804Z,102079.75
2023-02-15T09:26:50.891Z,102082.78
2023-02-15T09:29:20.878Z,102080.78
2023-02-15T09:31:51.715Z,102082.78
2023-02-15T09:34:24.438Z,102076.16
2023-02-15T09:36:53.141Z,102074.97
2023-02-15T09:39:24.504Z,102073.84
2023-02-15T09:42:44.537Z,102083.56
2023-02-15T09:45:54.553Z,102072.88
2023-02-15T09:48:41.677Z,102072.28
2023-02-15T09:51:49.960Z,102074.66
2023-02-15T09:54:40.462Z,102064.88
2023-02-15T09:57:22.102Z,102059.88
2023-02-15T10:00:05.098Z,102070.59
2023-02-15T10:02:55.180Z,102069.47
2023-02-15T10:05:40.230Z,102058.19
2023-02-15T10:08:47.196Z,102058.22
2023-02-15T10:11:43.042Z,102069.31
2023-02-15T10:14:57.150Z,102057.69
2023-02-15T10:17:46.928Z,102055.19
2023-02-15T10:20:30.702Z,102062.28
2023-02-15T10:23:34.588Z,102061.75
2023-02-15T10:26:14.990Z,102068.75
2023-02-15T10:28:50.742Z,102060.56
2023-02-15T10:31:27.355Z,102057.53
2023-02-15T10:34:17.378Z,102056.69
2023-02-15T10:37:23.116Z,102053.28
2023-02-15T10:40:09.964Z,102053.81
2023-02-15T10:43:03.179Z,102049.75
2023-02-15T10:45:44.410Z,102049.78
2023-02-15T10:48:52.222Z,102047.22
2023-02-15T10:51:38.921Z,102038.88
2023-02-15T10:54:19.786Z,102038.03
2023-02-15T10:56:58.857Z,102047.53
2023-02-15T10:59:54.299Z,102034.84
2023-02-15T11:02:42.583Z,102043.34
2023-02-15T11:05:43.625Z,102038.03
2023-02-15T11:08:14.031Z,102032.69
2023-02-15T11:10:49.289Z,102035.53
2023-02-15T11:13:21.890Z,102024.72
2023-02-15T11:15:55.738Z,102022.47
2023-02-15T11:18:34.647Z,102023.34
2023-02-15T11:21:12.407Z,102020.75
2023-02-15T11:23:46.821Z,102020.66
2023-02-15T11:26:21.735Z,102011.50
2023-02-15T11:28:59.269Z,102008.09
2023-02-15T11:31:37.465Z,102009.81
2023-02-15T11:34:17.904Z,102007.38
2023-02-15T11:36:48.532Z,102009.19
2023-02-15T11:39:20.270Z,102013.88
2023-02-15T11:41:55.794Z,102017.84
2023-02-15T11:44:34.243Z,102009.06
2023-02-15T11:47:03.541Z,102010.44
2023-02-15T11:49:34.893Z,102012.94
2023-02-15T11:52:08.384Z,101999.19
2023-02-15T11:54:43.437Z,102004.84
2023-02-15T11:57:21.789Z,102001.44
2023-02-15T12:00:00.514Z,102001.72
2023-02-15T12:02:31.020Z,101999.47
2023-02-15T12:05:05.092Z,101987.00
2023-02-15T12:07:39.576Z,101987.53
2023-02-15T12:10:21.398Z,101981.63
2023-02-15T12:12:49.452Z,101974.84
2023-02-15T12:15:36.190Z,101979.69
2023-02-15T12:18:04.601Z,101978.06
2023-02-15T12:20:35.732Z,101973.59
2023-02-15T12:23:08.196Z,101973.72
2023-02-15T12:25:42.797Z,101966.34
2023-02-15T12:28:28.925Z,101970.78
2023-02-15T12:31:00.404Z,101968.13
2023-02-15T12:33:33.039Z,101966.91
2023-02-15T12:36:06.427Z,101973.88
2023-02-15T12:38:35.311Z,101958.63
2023-02-15T12:41:06.908Z,101957.16
2023-02-15T12:43:37.374Z,101958.84
2023-02-15T12:46:27.689Z,101951.13
2023-02-15T12:49:20.562Z,101953.56
2023-02-15T12:51:52.076Z,101946.53
2023-02-15T12:54:33.041Z,101945.84
2023-02-15T12:57:14.320Z,101952.31
2023-02-15T12:59:51.834Z,101951.25
2023-02-15T13:02:29.271Z,101949.66
2023-02-15T13:05:06.557Z,101943.13
2023-02-15T13:07:35.209Z,101949.47
2023-02-15T13:10:03.610Z,101940.84
2023-02-15T13:12:34.572Z,101933.69
2023-02-15T13:15:05.495Z,101939.25
2023-02-15T13:17:35.847Z,101941.19
2023-02-15T13:20:10.373Z,101939.75
2023-02-15T13:22:45.190Z,101933.44
2023-02-15T13:25:21.482Z,101926.63
2023-02-15T13:27:56.847Z,101928.03
2023-02-15T13:30:30.033Z,101918.53
2023-02-15T13:33:05.725Z,101909.88
2023-02-15T13:35:44.705Z,101919.47
2023-02-15T13:38:44.455Z,101911.44
2023-02-15T13:41:18.142Z,101906.50
2023-02-15T13:43:59.502Z,101912.78
2023-02-15T13:47:00.136Z,101905.66
2023-02-15T13:49:58.019Z,101908.00
2023-02-15T13:52:30.754Z,101907.94
2023-02-15T13:55:28.497Z,101900.31
2023-02-15T13:58:29.032Z,101895.06
2023-02-15T14:01:10.896Z,101890.16
2023-02-15T14:04:10.821Z,101889.69
2023-02-15T14:07:17.680Z,101892.69
2023-02-15T14:10:02.657Z,101891.97
2023-02-15T14:12:50.814Z,101881.38
2023-02-15T14:15:34.703Z,101890.19
2023-02-15T14:18:18.768Z,101881.19
2023-02-15T14:21:04.628Z,101883.19
2023-02-15T14:23:54.519Z,101878.72
2023-02-15T14:26:33.542Z,101881.03
2023-02-15T14:29:27.368Z,101878.63
2023-02-15T14:32:02.005Z,101868.28
2023-02-15T14:34:44.095Z,101873.53
2023-02-15T14:37:18.404Z,101872.69
2023-02-15T14:40:19.049Z,101871.00
2023-02-15T14:42:57.831Z,101869.41
2023-02-15T14:45:37.939Z,101871.88
2023-02-15T14:48:16.856Z,101868.97
2023-02-15T14:50:47.792Z,101865.94
2023-02-15T14:53:40.090Z,101860.59
2023-02-15T14:56:19.553Z,101858.66
2023-02-15T14:59:22.008Z,101864.84
2023-02-15T15:01:59.448Z,101866.41
2023-02-15T15:04:34.984Z,101860.84
2023-02-15T15:07:16.178Z,101863.38
2023-02-15T15:09:50.380Z,101864.25
2023-02-15T15:12:41.924Z,101858.66
2023-02-15T15:15:15.802Z,101858.75
2023-02-15T15:18:02.100Z,101864.97
2023-02-15T15:20:51.237Z,101854.88
2023-02-15T15:23:50.057Z,101859.84
2023-02-15T15:26:41.736Z,101852.44
2023-02-15T15:29:11.166Z,101850.16
2023-02-15T15:31:54.622Z,101865.91
2023-02-15T15:35:02.806Z,101858.63
2023-02-15T15:38:04.185Z,101855.97
2023-02-15T15:40:59.155Z,101864.44
2023-02-15T15:44:13.696Z,101864.81
2023-02-15T15:47:17.935Z,101861.31
2023-02-15T15:49:46.217Z,101866.53
2023-02-15T15:52:18.830Z,101851.38
2023-02-15T15:54:49.962Z,101851.22
2023-02-15T15:57:27.499Z,101844.41
2023-02-15T15:59:58.167Z,101842.72
2023-02-15T16:02:29.079Z,101831.44
2023-02-15T16:05:09.188Z,101828.91
2023-02-15T16:07:37.424Z,101832.13
2023-02-15T16:10:08.984Z,101837.19
2023-02-15T16:12:41.134Z,101837.56
2023-02-15T16:15:20.356Z,101836.06
2023-02-15T16:17:55.838Z,101830.97
2023-02-15T16:20:27.605Z,101835.91
2023-02-15T16:23:14.609Z,101833.91
2023-02-15T16:25:57.073Z,101837.41
2023-02-15T16:28:25.324Z,101836.47
2023-02-15T16:31:11.159Z,101839.47
2023-02-15T16:33:45.739Z,101833.97
2023-02-15T16:36:22.828Z,101835.69
2023-02-15T16:39:22.131Z,101837.53
2023-02-15T16:41:56.301Z,101838.41
2023-02-15T16:44:24.528Z,101834.03
2023-02-15T16:46:55.826Z,101835.53
2023-02-15T16:49:29.758Z,101836.81
2023-02-15T16:52:02.936Z,101835.97
2023-02-15T16:54:33.186Z,101835.09
2023-02-15T16:57:01.576Z,101832.56
2023-02-15T16:59:40.546Z,101834.91
2023-02-15T17:02:37.153Z,101833.97
2023-02-15T17:05:20.716Z,101828.34
2023-02-15T17:08:07.659Z,101830.25
2023-02-15T17:10:42.488Z,101824.75
2023-02-15T17:13:13.957Z,101824.09
2023-02-15T17:15:45.486Z,101825.34
2023-02-15T17:18:20.143Z,101825.78
2023-02-15T17:20:54.142Z,101827.94
2023-02-15T17:23:30.936Z,101834.63
2023-02-15T17:26:00.957Z,101826.81
2023-02-15T17:28:33.192Z,101829.78
2023-02-15T17:31:02.017Z,101821.44
2023-02-15T17:33:40.175Z,101833.44
2023-02-15T17:36:14.682Z,101828.53
2023-02-15T17:39:03.512Z,101830.56
2023-02-15T17:41:35.029Z,101829.69
2023-02-15T17:44:04.757Z,101822.13
2023-02-15T17:46:37.646Z,101830.31
2023-02-15T17:49:06.510Z,101820.63
2023-02-15T17:51:36.405Z,101826.34
2023-02-15T17:54:22.931Z,101826.44
2023-02-15T17:56:50.932Z,101829.66
2023-02-15T17:59:19.047Z,101827.13
2023-02-15T18:02:09.174Z,101824.19
2023-02-15T18:04:56.240Z,101825.88
2023-02-15T18:07:43.339Z,101828.63
2023-02-15T18:10:33.830Z,101824.59
2023-02-15T18:13:01.901Z,101821.78
2023-02-15T18:15:30.379Z,101813.81
2023-02-15T18:17:58.546Z,101824.22
2023-02-15T18:20:34.195Z,101822.44
2023-02-15T18:23:04.186Z,101810.94
2023-02-15T18:25:32.379Z,101815.31
2023-02-15T18:28:00.478Z,101818.38
2023-02-15T18:30:28.966Z,101818.97
2023-02-15T18:33:00.340Z,101810.59
2023-02-15T18:35:33.113Z,101810.94
2023-02-15T18:38:03.671Z,101809.06
2023-02-15T18:40:31.922Z,101811.91
2023-02-15T18:42:59.996Z,101801.41
2023-02-15T18:45:32.858Z,101802.63
2023-02-15T18:48:01.180Z,101798.56
2023-02-15T18:50:34.860Z,101802.28
2023-02-15T18:53:07.527Z,101791.88
2023-02-15T18:55:36.592Z,101798.97
2023-02-15T18:58:05.085Z,101804.75
2023-02-15T19:00:35.866Z,101799.63
2023-02-15T19:03:04.708Z,101808.13
2023-02-15T19:05:34.358Z,101809.47
2023-02-15T19:08:04.916Z,101802.09
2023-02-15T19:10:34.864Z,101806.44
2023-02-15T19:13:02.918Z,101806.34
2023-02-15T19:15:32.019Z,101794.88
2023-02-15T19:18:00.153Z,101781.41
2023-02-15T19:20:39.266Z,101789.38
2023-02-15T19:23:19.310Z,101778.97
2023-02-15T19:25:50.613Z,101774.25
2023-02-15T19:28:25.550Z,101783.53
2023-02-15T19:30:53.685Z,101782.41
2023-02-15T19:33:23.664Z,101770.66
2023-02-15T19:35:57.137Z,101770.88
2023-02-15T19:38:31.695Z,101772.53
2023-02-15T19:41:06.095Z,101768.09
2023-02-15T19:43:35.975Z,101768.97
2023-02-15T19:46:04.519Z,101770.00
2023-02-15T19:48:32.855Z,101769.16
2023-02-15T19:51:00.993Z,101767.25
2023-02-15T19:53:30.825Z,101767.09
2023-02-15T19:55:58.964Z,101768.56
2023-02-15T19:58:27.039Z,101768.75
2023-02-15T20:00:55.245Z,101764.31
2023-02-15T20:03:23.459Z,101768.56
2023-02-15T20:05:51.625Z,101767.63
2023-02-15T20:08:23.765Z,101773.03
2023-02-15T20:10:53.595Z,101767.16
2023-02-15T20:13:22.289Z,101772.19
2023-02-15T20:15:51.777Z,101770.09
2023-02-15T20:18:22.388Z,101767.25
2023-02-15T20:20:54.727Z,101776.06
2023-02-15T20:23:30.441Z,101763.56
2023-02-15T20:26:03.514Z,101769.81
2023-02-15T20:28:32.836Z,101766.31
2023-02-15T20:31:01.580Z,101764.78
2023-02-15T20:33:29.925Z,101764.03
2023-02-15T20:35:59.623Z,101759.69
2023-02-15T20:38:32.332Z,101758.16
2023-02-15T20:41:19.922Z,101768.22
2023-02-15T20:43:48.515Z,101762.53
2023-02-15T20:46:16.595Z,101764.63
2023-02-15T20:48:44.713Z,101755.69
2023-02-15T20:51:19.673Z,101765.19
2023-02-15T20:53:49.153Z,101769.53
2023-02-15T20:56:22.836Z,101774.06
2023-02-15T20:58:52.221Z,101780.03
2023-02-15T21:01:21.136Z,101782.59
2023-02-15T21:03:49.507Z,101777.50
2023-02-15T21:06:18.887Z,101780.88
2023-02-15T21:08:47.017Z,101772.00
2023-02-15T21:11:21.796Z,101774.66
2023-02-15T21:13:51.572Z,101776.72
2023-02-15T21:16:20.102Z,101771.41
2023-02-15T21:18:48.330Z,101770.09
2023-02-15T21:21:24.483Z,101767.44
2023-02-15T21:23:54.267Z,101778.16
2023-02-15T21:26:24.542Z,101777.22
2023-02-15T21:28:52.750Z,101779.00
2023-02-15T21:31:23.610Z,101780.69
2023-02-15T21:33:53.337Z,101772.00
2023-02-15T21:36:26.804Z,101777.38
2023-02-15T21:38:54.985Z,101774.81
2023-02-15T21:41:45.250Z,101784.69
2023-02-15T21:44:36.759Z,101776.88
2023-02-15T21:47:22.353Z,101777.94
2023-02-15T21:49:50.448Z,101768.19
2023-02-15T21:52:23.453Z,101770.00
2023-02-15T21:54:51.559Z,101778.03
2023-02-15T21:57:22.404Z,101777.28
2023-02-15T21:59:50.661Z,101782.69
2023-02-15T22:02:31.301Z,101773.22
2023-02-15T22:05:00.285Z,101782.94
2023-02-15T22:07:28.336Z,101787.50
2023-02-15T22:09:56.390Z,101790.97
2023-02-15T22:12:25.919Z,101791.06
2023-02-15T22:14:55.260Z,101787.66
2023-02-15T22:17:27.480Z,101786.03
2023-02-15T22:19:56.045Z,101782.72
2023-02-15T22:22:25.941Z,101775.06
2023-02-15T22:24:54.329Z,101778.56
2023-02-15T22:27:26.918Z,101777.06
2023-02-15T22:29:56.371Z,101777.06
2023-02-15T22:32:27.258Z,101767.59
2023-02-15T22:34:55.919Z,101766.81
2023-02-15T22:37:24.110Z,101762.47
2023-02-15T22:39:52.223Z,101765.88
2023-02-15T22:42:27.308Z,101774.94
2023-02-15T22:44:57.324Z,101776.72
2023-02-15T22:47:29.231Z,101773.41
2023-02-15T22:49:57.361Z,101786.75
2023-02-15T22:52:25.592Z,101777.09
2023-02-15T22:54:53.658Z,101772.91
2023-02-15T22:57:30.741Z,101780.00
2023-02-15T23:00:00.543Z,101777.34
2023-02-15T23:02:28.711Z,101766.19
2023-02-15T23:04:56.808Z,101761.84
2023-02-15T23:07:24.894Z,101761.09
2023-02-15T23:09:52.948Z,101755.00
2023-02-15T23:12:28.036Z,101762.94
2023-02-15T23:14:57.491Z,101761.25
2023-02-15T23:17:25.568Z,101762.38
2023-02-15T23:19:53.628Z,101769.53
2023-02-15T23:22:22.274Z,101757.28
2023-02-15T23:24:54.002Z,101747.63
2023-02-15T23:27:39.903Z,101748.38
2023-02-15T23:30:15.587Z,101752.16
2023-02-15T23:32:43.690Z,101754.69
2023-02-15T23:35:16.456Z,101752.16
2023-02-15T23:37:44.680Z,101755.56
2023-02-15T23:40:32.890Z,101752.16
2023-02-15T23:43:01.064Z,101758.47
2023-02-15T23:45:34.563Z,101763.84
2023-02-15T23:48:20.153Z,101764.03
2023-02-15T23:50:48.227Z,101756.28
2023-02-15T23:53:16.299Z,101758.63
2023-02-15T23:55:45.724Z,101758.56
2023-02-15T23:58:19.411Z,101760.16
